Terminal Aerodrome Forecast
Issued by NWS Sterling, VA

Home | Current Version | Previous Version | Text Only | Print | Product List | Glossary On
Versions: 1 2 3 4 5 6 7 8 9 10 11 12 13 14 15 16 17 18 19 20 21 22 23 24
000
FTUS41 KLWX 292100 AAA
TAFDCA
TAF AMD
KDCA 292100Z 2921/3018 30011G19KT P6SM SCT060 BKN250
     FM292300 31007KT P6SM SCT110
     FM300400 VRB03KT P6SM SCT250=

USA.gov is the U.S. government's official web portal to all federal, state and local government web resources and services.